Pays
Station

 

Conditions  météo  pour  Buckland, Buckland Airport  -  Etats-Unis    Etats-Unis

  
-5 °C
    
 
 

METAR pour Buckland, Buckland Airport :

PABL 221556Z AUTO 12016G22KT 10SM FEW050 OVC065 M05/M08 A3009 RMK AO2 PK WND 13028/1523 SLP191 T10501083 FZRANO

 

Voici le bulletin pour Buckland, Buckland Airport - Etats-Unis.
 
Le bulletin a été fait il y a 45 minutes, à 15:56 UTC .
Le vent soufflait à la vitesse de 8.2 mètres par seconde avec des rafales jusqu'à 11.3 mètres par seconde de Est/Sud-est (120°).
 
La température était de -5 °C, avec un point de rosée à -8 °C.
La température ressentie était de -13 °C.
 
La pression atmosphérique était de 1019 hPa.
L'humidité relative était de 79.4%.
 
Il y avait 1 à 2/8ème de nébulosité à une hauteur de 1524 mètres. Le ciel était nuageux à partir d'une hauteur de 1981 mètres
 
La visibilité globale était de 16.1 kilomètres.
 

 
 
 

Pays :   A   B   C   D   E   F   G   H   I   J   K   L   M   N   O   P   Q   R   S   T   U   V   W   Y   Z

 

Partenaires :  Info Météo avec Met'info
Météo Marine avec MeteoMarine.net
Infos Site  |  Infos Légales  |  Crédits  |  Confidentialité
Contactez-nous  |  Ajouter aux favoris
© 2013-2019 METAR - Tous droits réservés